Madison, Nebraska
Current Conditions -  °F | °C
As of 3:56 PM on Tuesday 21 Oct 2014 (Local Time) from KOFK Reporting Station
Clear Clear  
Wind Chill: 25°   Ceiling: Unl
Heat Index: 25°   Visibility: 10mi
Dew Point:   Wind: 17mph
Humidity: 30%   Direction: 180°S
Pressure: 29.98"   Gusts: 24mph
Location:  41.83°N, 97.46°W
Report Text: KOFK 212056Z AUTO 18015G21KT 10SM CLR 25/06 A2998 RMK AO2 SLP150 T02500061 56019
Loading
Personal Weather Stations






























Interactive Weather Map
Tropical Storm Tracking
New forecast layout! Learn more

10-Day Weather Forecast

Advertisements
Track Severe Weather on mobile